sensor_id;sensor_type;location;lat;lon;timestamp;temperature;humidity
54796;DHT22;40693;43.884;20.340;2023-07-31T00:00:35;589.20;2432.00
54796;DHT22;40693;43.884;20.340;2023-07-31T00:03:01;589.30;2432.00
54796;DHT22;40693;43.884;20.340;2023-07-31T00:05:27;589.20;2432.00
54796;DHT22;40693;43.884;20.340;2023-07-31T00:17:04;589.20;2432.00
54796;DHT22;40693;43.884;20.340;2023-07-31T00:19:30;589.20;2432.00
54796;DHT22;40693;43.884;20.340;2023-07-31T00:21:56;589.20;2432.00
54796;DHT22;40693;43.884;20.340;2023-07-31T00:24:21;589.20;2432.00
54796;DHT22;40693;43.884;20.340;2023-07-31T00:26:47;589.10;2432.00
54796;DHT22;40693;43.884;20.340;2023-07-31T00:29:13;589.00;2432.00
54796;DHT22;40693;43.884;20.340;2023-07-31T00:31:38;589.00;2432.00
54796;DHT22;40693;43.884;20.340;2023-07-31T00:34:04;589.10;2432.00
54796;DHT22;40693;43.884;20.340;2023-07-31T00:36:30;589.20;2432.00
54796;DHT22;40693;43.884;20.340;2023-07-31T00:38:55;589.20;2432.00
54796;DHT22;40693;43.884;20.340;2023-07-31T00:41:21;589.10;2432.00
54796;DHT22;40693;43.884;20.340;2023-07-31T00:43:47;589.10;2432.00
54796;DHT22;40693;43.884;20.340;2023-07-31T00:46:13;589.10;2432.00
54796;DHT22;40693;43.884;20.340;2023-07-31T00:48:39;589.10;2432.00
54796;DHT22;40693;43.884;20.340;2023-07-31T00:51:05;589.10;2432.00
54796;DHT22;40693;43.884;20.340;2023-07-31T00:53:31;589.20;2432.00
54796;DHT22;40693;43.884;20.340;2023-07-31T00:55:57;589.20;2432.00
54796;DHT22;40693;43.884;20.340;2023-07-31T00:58:23;589.00;2432.00
54796;DHT22;40693;43.884;20.340;2023-07-31T01:00:49;589.00;2432.00
54796;DHT22;40693;43.884;20.340;2023-07-31T01:03:16;589.00;2432.00
54796;DHT22;40693;43.884;20.340;2023-07-31T01:08:33;589.10;2432.00
54796;DHT22;40693;43.884;20.340;2023-07-31T01:11:22;589.00;2432.00
54796;DHT22;40693;43.884;20.340;2023-07-31T01:13:50;589.00;2432.00
54796;DHT22;40693;43.884;20.340;2023-07-31T01:16:16;588.90;2432.00
54796;DHT22;40693;43.884;20.340;2023-07-31T01:18:41;588.90;2432.00
54796;DHT22;40693;43.884;20.340;2023-07-31T01:22:07;588.80;2432.00
54796;DHT22;40693;43.884;20.340;2023-07-31T01:26:53;588.80;2432.00
54796;DHT22;40693;43.884;20.340;2023-07-31T01:30:33;588.90;2432.00
54796;DHT22;40693;43.884;20.340;2023-07-31T01:32:28;588.90;2432.00
54796;DHT22;40693;43.884;20.340;2023-07-31T01:34:57;564.10;2432.00
54796;DHT22;40693;43.884;20.340;2023-07-31T01:37:30;564.10;2432.00
54796;DHT22;40693;43.884;20.340;2023-07-31T01:39:56;564.10;2432.00
54796;DHT22;40693;43.884;20.340;2023-07-31T01:42:22;564.10;2432.00
54796;DHT22;40693;43.884;20.340;2023-07-31T01:44:47;564.00;2432.00
54796;DHT22;40693;43.884;20.340;2023-07-31T01:47:13;564.00;2432.00
54796;DHT22;40693;43.884;20.340;2023-07-31T01:49:38;564.00;2432.00
54796;DHT22;40693;43.884;20.340;2023-07-31T01:52:05;564.10;2432.00
54796;DHT22;40693;43.884;20.340;2023-07-31T01:54:30;564.10;2432.00
54796;DHT22;40693;43.884;20.340;2023-07-31T01:56:56;564.10;2432.00
54796;DHT22;40693;43.884;20.340;2023-07-31T01:59:22;564.10;2432.00
54796;DHT22;40693;43.884;20.340;2023-07-31T02:01:48;564.10;2432.00
54796;DHT22;40693;43.884;20.340;2023-07-31T02:04:13;564.00;2432.00
54796;DHT22;40693;43.884;20.340;2023-07-31T02:06:39;563.90;2432.00
54796;DHT22;40693;43.884;20.340;2023-07-31T02:09:05;563.90;2432.00
54796;DHT22;40693;43.884;20.340;2023-07-31T02:11:30;563.80;2432.00
54796;DHT22;40693;43.884;20.340;2023-07-31T02:13:56;563.80;2432.00
54796;DHT22;40693;43.884;20.340;2023-07-31T02:16:22;563.80;2432.00
54796;DHT22;40693;43.884;20.340;2023-07-31T02:18:47;563.90;2432.00
54796;DHT22;40693;43.884;20.340;2023-07-31T02:21:13;563.90;2432.00
54796;DHT22;40693;43.884;20.340;2023-07-31T02:23:39;563.80;2432.00
54796;DHT22;40693;43.884;20.340;2023-07-31T02:26:04;563.80;2432.00
54796;DHT22;40693;43.884;20.340;2023-07-31T02:28:30;563.70;2432.00
54796;DHT22;40693;43.884;20.340;2023-07-31T02:30:56;563.70;2432.00
54796;DHT22;40693;43.884;20.340;2023-07-31T02:33:21;563.60;2432.00
54796;DHT22;40693;43.884;20.340;2023-07-31T02:35:47;563.60;2432.00
54796;DHT22;40693;43.884;20.340;2023-07-31T02:38:13;563.60;2432.00
54796;DHT22;40693;43.884;20.340;2023-07-31T02:40:41;563.50;2432.00
54796;DHT22;40693;43.884;20.340;2023-07-31T02:43:08;563.60;2432.00
54796;DHT22;40693;43.884;20.340;2023-07-31T02:45:34;563.50;2432.00
54796;DHT22;40693;43.884;20.340;2023-07-31T02:48:00;563.50;2432.00
54796;DHT22;40693;43.884;20.340;2023-07-31T02:50:25;563.50;2432.00
54796;DHT22;40693;43.884;20.340;2023-07-31T02:52:53;563.40;2432.00
54796;DHT22;40693;43.884;20.340;2023-07-31T02:55:18;563.40;2432.00
54796;DHT22;40693;43.884;20.340;2023-07-31T02:57:44;563.30;2432.00
54796;DHT22;40693;43.884;20.340;2023-07-31T03:00:10;563.30;2432.00
54796;DHT22;40693;43.884;20.340;2023-07-31T03:02:35;563.20;2432.00
54796;DHT22;40693;43.884;20.340;2023-07-31T03:05:01;563.20;2432.00
54796;DHT22;40693;43.884;20.340;2023-07-31T03:07:27;563.20;2432.00
54796;DHT22;40693;43.884;20.340;2023-07-31T03:09:53;563.20;2432.00
54796;DHT22;40693;43.884;20.340;2023-07-31T03:12:19;563.20;2432.00
54796;DHT22;40693;43.884;20.340;2023-07-31T03:14:45;563.20;2432.00
54796;DHT22;40693;43.884;20.340;2023-07-31T03:17:12;538.50;2406.40
54796;DHT22;40693;43.884;20.340;2023-07-31T03:19:37;538.50;2406.40
54796;DHT22;40693;43.884;20.340;2023-07-31T03:22:03;563.20;2432.00
54796;DHT22;40693;43.884;20.340;2023-07-31T03:24:29;563.20;2432.00
54796;DHT22;40693;43.884;20.340;2023-07-31T03:26:55;563.20;2432.00
54796;DHT22;40693;43.884;20.340;2023-07-31T03:29:20;563.20;2432.00
54796;DHT22;40693;43.884;20.340;2023-07-31T03:31:46;563.20;2432.00
54796;DHT22;40693;43.884;20.340;2023-07-31T03:34:12;538.50;2406.40
54796;DHT22;40693;43.884;20.340;2023-07-31T03:36:37;563.20;2432.00
54796;DHT22;40693;43.884;20.340;2023-07-31T03:39:03;563.20;2432.00
54796;DHT22;40693;43.884;20.340;2023-07-31T03:41:29;563.20;2432.00
54796;DHT22;40693;43.884;20.340;2023-07-31T03:43:54;563.20;2432.00
54796;DHT22;40693;43.884;20.340;2023-07-31T03:46:22;563.20;2432.00
54796;DHT22;40693;43.884;20.340;2023-07-31T03:48:48;563.20;2432.00
54796;DHT22;40693;43.884;20.340;2023-07-31T03:51:14;563.20;2432.00
54796;DHT22;40693;43.884;20.340;2023-07-31T03:53:40;538.50;2406.40
54796;DHT22;40693;43.884;20.340;2023-07-31T03:56:05;538.50;2406.40
54796;DHT22;40693;43.884;20.340;2023-07-31T03:58:31;538.40;2406.40
54796;DHT22;40693;43.884;20.340;2023-07-31T04:00:57;538.40;2406.40
54796;DHT22;40693;43.884;20.340;2023-07-31T04:03:22;538.40;2406.40
54796;DHT22;40693;43.884;20.340;2023-07-31T04:05:48;538.50;2406.40
54796;DHT22;40693;43.884;20.340;2023-07-31T04:08:14;538.50;2406.40
54796;DHT22;40693;43.884;20.340;2023-07-31T04:10:39;538.50;2406.40
54796;DHT22;40693;43.884;20.340;2023-07-31T04:13:05;538.50;2406.40
54796;DHT22;40693;43.884;20.340;2023-07-31T04:15:31;538.50;2406.40
54796;DHT22;40693;43.884;20.340;2023-07-31T04:17:56;538.50;2406.40
54796;DHT22;40693;43.884;20.340;2023-07-31T04:20:22;563.20;2432.00
54796;DHT22;40693;43.884;20.340;2023-07-31T04:22:49;563.20;2432.00
54796;DHT22;40693;43.884;20.340;2023-07-31T04:25:14;563.30;2432.00
54796;DHT22;40693;43.884;20.340;2023-07-31T04:27:40;563.30;2432.00
54796;DHT22;40693;43.884;20.340;2023-07-31T04:30:06;563.40;2432.00
54796;DHT22;40693;43.884;20.340;2023-07-31T04:32:32;563.40;2432.00
54796;DHT22;40693;43.884;20.340;2023-07-31T04:34:58;563.40;2432.00
54796;DHT22;40693;43.884;20.340;2023-07-31T04:37:23;563.50;2432.00
54796;DHT22;40693;43.884;20.340;2023-07-31T04:39:49;563.50;2432.00
54796;DHT22;40693;43.884;20.340;2023-07-31T04:42:15;563.40;2432.00
54796;DHT22;40693;43.884;20.340;2023-07-31T04:44:40;563.40;2432.00
54796;DHT22;40693;43.884;20.340;2023-07-31T04:47:06;563.40;2432.00
54796;DHT22;40693;43.884;20.340;2023-07-31T04:49:32;563.40;2432.00
54796;DHT22;40693;43.884;20.340;2023-07-31T04:51:58;563.40;2432.00
54796;DHT22;40693;43.884;20.340;2023-07-31T04:54:24;563.50;2432.00
54796;DHT22;40693;43.884;20.340;2023-07-31T04:56:50;563.60;2432.00
54796;DHT22;40693;43.884;20.340;2023-07-31T04:59:15;563.60;2432.00
54796;DHT22;40693;43.884;20.340;2023-07-31T05:01:41;563.60;2432.00
54796;DHT22;40693;43.884;20.340;2023-07-31T05:04:06;563.80;2432.00
54796;DHT22;40693;43.884;20.340;2023-07-31T05:06:33;563.80;2432.00
54796;DHT22;40693;43.884;20.340;2023-07-31T05:08:58;563.90;2432.00
54796;DHT22;40693;43.884;20.340;2023-07-31T05:11:24;563.90;2432.00
54796;DHT22;40693;43.884;20.340;2023-07-31T05:13:49;563.90;2432.00
54796;DHT22;40693;43.884;20.340;2023-07-31T05:16:15;563.90;2432.00
54796;DHT22;40693;43.884;20.340;2023-07-31T05:18:41;564.00;2432.00
54796;DHT22;40693;43.884;20.340;2023-07-31T05:21:06;564.00;2432.00
54796;DHT22;40693;43.884;20.340;2023-07-31T05:23:32;564.00;2432.00
54796;DHT22;40693;43.884;20.340;2023-07-31T05:26:05;564.00;2432.00
54796;DHT22;40693;43.884;20.340;2023-07-31T05:28:33;564.10;2432.00
54796;DHT22;40693;43.884;20.340;2023-07-31T05:31:02;564.10;2432.00
54796;DHT22;40693;43.884;20.340;2023-07-31T05:33:28;564.10;2432.00
54796;DHT22;40693;43.884;20.340;2023-07-31T05:35:54;564.10;2432.00
54796;DHT22;40693;43.884;20.340;2023-07-31T05:38:20;564.10;2432.00
54796;DHT22;40693;43.884;20.340;2023-07-31T05:40:46;564.10;2432.00
54796;DHT22;40693;43.884;20.340;2023-07-31T05:43:12;564.10;2432.00
54796;DHT22;40693;43.884;20.340;2023-07-31T05:45:38;564.10;2432.00
54796;DHT22;40693;43.884;20.340;2023-07-31T05:48:05;588.80;2432.00
54796;DHT22;40693;43.884;20.340;2023-07-31T05:50:31;588.80;2432.00
54796;DHT22;40693;43.884;20.340;2023-07-31T05:52:57;588.90;2432.00
54796;DHT22;40693;43.884;20.340;2023-07-31T05:55:23;589.00;2432.00
54796;DHT22;40693;43.884;20.340;2023-07-31T05:57:49;589.10;2432.00
54796;DHT22;40693;43.884;20.340;2023-07-31T06:00:15;589.20;2432.00
54796;DHT22;40693;43.884;20.340;2023-07-31T06:02:41;589.20;2432.00
54796;DHT22;40693;43.884;20.340;2023-07-31T06:05:07;589.20;2432.00
54796;DHT22;40693;43.884;20.340;2023-07-31T06:07:33;589.30;2432.00
54796;DHT22;40693;43.884;20.340;2023-07-31T06:09:58;589.40;2432.00
54796;DHT22;40693;43.884;20.340;2023-07-31T06:12:31;589.50;2432.00
54796;DHT22;40693;43.884;20.340;2023-07-31T06:14:57;589.50;2432.00
54796;DHT22;40693;43.884;20.340;2023-07-31T06:17:22;589.50;2432.00
54796;DHT22;40693;43.884;20.340;2023-07-31T06:19:49;589.60;2432.00
54796;DHT22;40693;43.884;20.340;2023-07-31T06:22:15;589.50;2432.00
54796;DHT22;40693;43.884;20.340;2023-07-31T06:24:41;614.40;2432.00
54796;DHT22;40693;43.884;20.340;2023-07-31T06:27:06;614.40;2432.00
54796;DHT22;40693;43.884;20.340;2023-07-31T06:29:32;614.40;2432.00
54796;DHT22;40693;43.884;20.340;2023-07-31T06:31:58;614.50;2432.00
54796;DHT22;40693;43.884;20.340;2023-07-31T06:34:24;614.60;2432.00
54796;DHT22;40693;43.884;20.340;2023-07-31T06:36:50;614.70;2432.00
54796;DHT22;40693;43.884;20.340;2023-07-31T06:39:16;614.80;2432.00
54796;DHT22;40693;43.884;20.340;2023-07-31T06:41:42;614.80;2432.00
54796;DHT22;40693;43.884;20.340;2023-07-31T06:44:08;614.80;2432.00
54796;DHT22;40693;43.884;20.340;2023-07-31T06:46:34;615.00;2432.00
54796;DHT22;40693;43.884;20.340;2023-07-31T06:48:59;615.00;2432.00
54796;DHT22;40693;43.884;20.340;2023-07-31T06:51:25;615.10;2432.00
54796;DHT22;40693;43.884;20.340;2023-07-31T06:53:51;615.10;2432.00
54796;DHT22;40693;43.884;20.340;2023-07-31T06:56:17;615.20;2432.00
54796;DHT22;40693;43.884;20.340;2023-07-31T06:58:42;615.30;2432.00
54796;DHT22;40693;43.884;20.340;2023-07-31T07:01:08;640.00;2432.00
54796;DHT22;40693;43.884;20.340;2023-07-31T07:03:34;640.00;2432.00
54796;DHT22;40693;43.884;20.340;2023-07-31T07:06:00;640.10;2432.00
54796;DHT22;40693;43.884;20.340;2023-07-31T07:08:26;640.20;2432.00
54796;DHT22;40693;43.884;20.340;2023-07-31T07:10:52;640.30;2432.00
54796;DHT22;40693;43.884;20.340;2023-07-31T07:13:18;640.30;2432.00
54796;DHT22;40693;43.884;20.340;2023-07-31T07:15:52;640.40;2432.00
54796;DHT22;40693;43.884;20.340;2023-07-31T07:18:18;640.50;2432.00
54796;DHT22;40693;43.884;20.340;2023-07-31T07:20:50;640.60;2432.00
54796;DHT22;40693;43.884;20.340;2023-07-31T07:23:16;640.60;2432.00
54796;DHT22;40693;43.884;20.340;2023-07-31T07:25:43;640.70;2432.00
54796;DHT22;40693;43.884;20.340;2023-07-31T07:28:09;640.90;2432.00
54796;DHT22;40693;43.884;20.340;2023-07-31T07:30:34;640.90;2432.00
54796;DHT22;40693;43.884;20.340;2023-07-31T07:33:00;640.90;2432.00
54796;DHT22;40693;43.884;20.340;2023-07-31T07:35:26;665.60;2432.00
54796;DHT22;40693;43.884;20.340;2023-07-31T07:37:51;665.70;2432.00
54796;DHT22;40693;43.884;20.340;2023-07-31T07:40:17;665.80;2432.00
54796;DHT22;40693;43.884;20.340;2023-07-31T07:42:43;665.90;2432.00
54796;DHT22;40693;43.884;20.340;2023-07-31T07:45:09;666.10;2432.00
54796;DHT22;40693;43.884;20.340;2023-07-31T07:47:35;666.20;2432.00
54796;DHT22;40693;43.884;20.340;2023-07-31T07:50:00;666.30;2432.00
54796;DHT22;40693;43.884;20.340;2023-07-31T07:52:26;666.30;2432.00
54796;DHT22;40693;43.884;20.340;2023-07-31T07:54:52;666.30;2432.00
54796;DHT22;40693;43.884;20.340;2023-07-31T07:57:17;666.30;2432.00
54796;DHT22;40693;43.884;20.340;2023-07-31T07:59:44;666.30;2432.00
54796;DHT22;40693;43.884;20.340;2023-07-31T08:02:09;666.30;2432.00
54796;DHT22;40693;43.884;20.340;2023-07-31T08:04:35;666.20;2432.00
54796;DHT22;40693;43.884;20.340;2023-07-31T08:07:01;666.20;2432.00
54796;DHT22;40693;43.884;20.340;2023-07-31T08:09:26;666.40;2432.00
54796;DHT22;40693;43.884;20.340;2023-07-31T08:11:52;666.40;2432.00
54796;DHT22;40693;43.884;20.340;2023-07-31T08:14:18;666.40;2432.00
54796;DHT22;40693;43.884;20.340;2023-07-31T08:16:43;666.50;2432.00
54796;DHT22;40693;43.884;20.340;2023-07-31T08:19:09;691.20;2432.00
54796;DHT22;40693;43.884;20.340;2023-07-31T08:21:35;666.50;2432.00
54796;DHT22;40693;43.884;20.340;2023-07-31T08:24:01;691.20;2432.00
54796;DHT22;40693;43.884;20.340;2023-07-31T08:26:26;691.20;2432.00
54796;DHT22;40693;43.884;20.340;2023-07-31T08:28:52;691.20;2432.00
54796;DHT22;40693;43.884;20.340;2023-07-31T08:31:18;691.30;2432.00
54796;DHT22;40693;43.884;20.340;2023-07-31T08:33:44;691.50;2432.00
54796;DHT22;40693;43.884;20.340;2023-07-31T08:36:10;691.60;2432.00
54796;DHT22;40693;43.884;20.340;2023-07-31T08:38:35;691.60;2432.00
54796;DHT22;40693;43.884;20.340;2023-07-31T08:41:03;691.70;2432.00
54796;DHT22;40693;43.884;20.340;2023-07-31T08:43:30;691.70;2432.00
54796;DHT22;40693;43.884;20.340;2023-07-31T08:45:56;691.60;2432.00
54796;DHT22;40693;43.884;20.340;2023-07-31T08:48:23;691.80;2432.00
54796;DHT22;40693;43.884;20.340;2023-07-31T08:50:51;691.90;2380.80
54796;DHT22;40693;43.884;20.340;2023-07-31T08:53:16;692.00;2406.40
54796;DHT22;40693;43.884;20.340;2023-07-31T08:55:43;692.10;2406.40
54796;DHT22;40693;43.884;20.340;2023-07-31T08:58:10;716.80;2432.00
54796;DHT22;40693;43.884;20.340;2023-07-31T09:00:38;717.00;2432.00
54796;DHT22;40693;43.884;20.340;2023-07-31T09:03:12;717.10;2432.00
54796;DHT22;40693;43.884;20.340;2023-07-31T09:05:44;717.30;2432.00
54796;DHT22;40693;43.884;20.340;2023-07-31T09:08:11;717.40;2355.20
54796;DHT22;40693;43.884;20.340;2023-07-31T09:10:44;717.40;2252.80
54796;DHT22;40693;43.884;20.340;2023-07-31T09:13:13;717.60;2304.00
54796;DHT22;40693;43.884;20.340;2023-07-31T09:15:41;717.40;2227.20
54796;DHT22;40693;43.884;20.340;2023-07-31T09:18:08;717.30;2201.60
54796;DHT22;40693;43.884;20.340;2023-07-31T09:20:34;717.30;2150.40
54796;DHT22;40693;43.884;20.340;2023-07-31T09:23:14;717.30;2201.60
54796;DHT22;40693;43.884;20.340;2023-07-31T09:25:43;717.30;2150.40
54796;DHT22;40693;43.884;20.340;2023-07-31T09:28:12;717.30;2176.00
54796;DHT22;40693;43.884;20.340;2023-07-31T09:30:46;717.30;2150.40
54796;DHT22;40693;43.884;20.340;2023-07-31T09:33:13;717.40;2150.40
54796;DHT22;40693;43.884;20.340;2023-07-31T09:35:39;717.40;2099.20
54796;DHT22;40693;43.884;20.340;2023-07-31T09:38:10;717.40;2124.80
54796;DHT22;40693;43.884;20.340;2023-07-31T09:40:39;717.40;2073.60
54796;DHT22;40693;43.884;20.340;2023-07-31T09:43:12;717.40;2124.80
54796;DHT22;40693;43.884;20.340;2023-07-31T09:45:41;717.50;2073.60
54796;DHT22;40693;43.884;20.340;2023-07-31T09:48:18;717.70;2099.20
54796;DHT22;40693;43.884;20.340;2023-07-31T09:50:49;742.50;2124.80
54796;DHT22;40693;43.884;20.340;2023-07-31T09:53:16;742.50;2099.20
54796;DHT22;40693;43.884;20.340;2023-07-31T09:55:43;742.50;2073.60
54796;DHT22;40693;43.884;20.340;2023-07-31T09:58:10;742.60;2124.80
54796;DHT22;40693;43.884;20.340;2023-07-31T10:00:36;742.70;2048.00
54796;DHT22;40693;43.884;20.340;2023-07-31T10:03:08;742.80;2048.00
54796;DHT22;40693;43.884;20.340;2023-07-31T10:05:50;742.90;1971.20
54796;DHT22;40693;43.884;20.340;2023-07-31T10:08:20;742.90;1920.00
54796;DHT22;40693;43.884;20.340;2023-07-31T10:10:47;742.80;1996.80
54796;DHT22;40693;43.884;20.340;2023-07-31T10:13:13;742.90;2048.00
54796;DHT22;40693;43.884;20.340;2023-07-31T10:15:39;743.00;1996.80
54796;DHT22;40693;43.884;20.340;2023-07-31T10:18:07;742.90;1945.60
54796;DHT22;40693;43.884;20.340;2023-07-31T10:20:34;743.00;1996.80
54796;DHT22;40693;43.884;20.340;2023-07-31T10:23:00;743.00;1971.20
54796;DHT22;40693;43.884;20.340;2023-07-31T10:25:26;743.10;1894.40
54796;DHT22;40693;43.884;20.340;2023-07-31T10:27:53;743.30;1945.60
54796;DHT22;40693;43.884;20.340;2023-07-31T10:30:22;743.30;1792.00
54796;DHT22;40693;43.884;20.340;2023-07-31T10:32:51;743.10;1868.80
54796;DHT22;40693;43.884;20.340;2023-07-31T10:35:18;743.30;1868.80
54796;DHT22;40693;43.884;20.340;2023-07-31T10:37:47;768.00;1920.00
54796;DHT22;40693;43.884;20.340;2023-07-31T10:40:16;768.20;1817.60
54796;DHT22;40693;43.884;20.340;2023-07-31T10:42:50;768.40;1843.20
54796;DHT22;40693;43.884;20.340;2023-07-31T10:45:44;768.40;1766.40
54796;DHT22;40693;43.884;20.340;2023-07-31T10:48:14;768.40;1792.00
54796;DHT22;40693;43.884;20.340;2023-07-31T10:50:48;768.40;1817.60
54796;DHT22;40693;43.884;20.340;2023-07-31T10:53:24;768.60;1817.60
54796;DHT22;40693;43.884;20.340;2023-07-31T10:55:50;793.60;1894.40
54796;DHT22;40693;43.884;20.340;2023-07-31T10:58:21;793.60;1792.00
54796;DHT22;40693;43.884;20.340;2023-07-31T11:00:47;793.80;1766.40
54796;DHT22;40693;43.884;20.340;2023-07-31T11:03:24;793.90;1689.60
54796;DHT22;40693;43.884;20.340;2023-07-31T11:06:03;793.80;1740.80
54796;DHT22;40693;43.884;20.340;2023-07-31T11:08:33;793.80;1766.40
54796;DHT22;40693;43.884;20.340;2023-07-31T11:13:30;793.90;1766.40
54796;DHT22;40693;43.884;20.340;2023-07-31T11:15:55;793.80;1715.20
54796;DHT22;40693;43.884;20.340;2023-07-31T11:18:21;794.10;1766.40
54796;DHT22;40693;43.884;20.340;2023-07-31T11:20:47;794.00;1740.80
54796;DHT22;40693;43.884;20.340;2023-07-31T11:23:16;794.00;1792.00
54796;DHT22;40693;43.884;20.340;2023-07-31T11:25:42;794.00;1740.80
54796;DHT22;40693;43.884;20.340;2023-07-31T11:28:10;794.00;1792.00
54796;DHT22;40693;43.884;20.340;2023-07-31T11:30:36;793.90;1740.80
54796;DHT22;40693;43.884;20.340;2023-07-31T11:33:03;794.20;1740.80
54796;DHT22;40693;43.884;20.340;2023-07-31T11:35:33;793.80;1792.00
54796;DHT22;40693;43.884;20.340;2023-07-31T11:38:00;794.10;1817.60
54796;DHT22;40693;43.884;20.340;2023-07-31T11:40:26;794.20;1740.80
54796;DHT22;40693;43.884;20.340;2023-07-31T11:42:58;794.30;1664.00
54796;DHT22;40693;43.884;20.340;2023-07-31T11:45:27;819.20;1612.80
54796;DHT22;40693;43.884;20.340;2023-07-31T11:47:57;794.50;1664.00
54796;DHT22;40693;43.884;20.340;2023-07-31T11:50:24;819.40;1664.00
54796;DHT22;40693;43.884;20.340;2023-07-31T11:52:56;819.50;1689.60
54796;DHT22;40693;43.884;20.340;2023-07-31T11:55:23;819.60;1740.80
54796;DHT22;40693;43.884;20.340;2023-07-31T11:57:49;819.80;1664.00
54796;DHT22;40693;43.884;20.340;2023-07-31T12:00:16;819.80;1638.40
54796;DHT22;40693;43.884;20.340;2023-07-31T12:02:43;819.80;1638.40
54796;DHT22;40693;43.884;20.340;2023-07-31T12:05:13;819.70;1638.40
54796;DHT22;40693;43.884;20.340;2023-07-31T12:07:52;819.80;1612.80
54796;DHT22;40693;43.884;20.340;2023-07-31T12:10:30;820.00;1638.40
54796;DHT22;40693;43.884;20.340;2023-07-31T12:13:07;819.80;1561.60
54796;DHT22;40693;43.884;20.340;2023-07-31T12:15:34;819.80;1561.60
54796;DHT22;40693;43.884;20.340;2023-07-31T12:18:04;820.00;1612.80
54796;DHT22;40693;43.884;20.340;2023-07-31T12:20:31;820.10;1536.00
54796;DHT22;40693;43.884;20.340;2023-07-31T12:22:57;820.00;1612.80
54796;DHT22;40693;43.884;20.340;2023-07-31T12:25:29;820.00;1587.20
54796;DHT22;40693;43.884;20.340;2023-07-31T12:27:54;820.10;1587.20
54796;DHT22;40693;43.884;20.340;2023-07-31T12:30:27;820.10;1536.00
54796;DHT22;40693;43.884;20.340;2023-07-31T12:32:53;820.10;1561.60
54796;DHT22;40693;43.884;20.340;2023-07-31T12:35:19;820.00;1536.00
54796;DHT22;40693;43.884;20.340;2023-07-31T12:37:45;819.80;1561.60
54796;DHT22;40693;43.884;20.340;2023-07-31T12:40:11;819.80;1510.40
54796;DHT22;40693;43.884;20.340;2023-07-31T12:42:37;819.90;1510.40
54796;DHT22;40693;43.884;20.340;2023-07-31T12:45:03;820.00;1484.80
54796;DHT22;40693;43.884;20.340;2023-07-31T12:47:29;820.10;1536.00
54796;DHT22;40693;43.884;20.340;2023-07-31T12:49:55;820.10;1536.00
54796;DHT22;40693;43.884;20.340;2023-07-31T12:52:21;844.90;1510.40
54796;DHT22;40693;43.884;20.340;2023-07-31T12:54:46;820.10;1459.20
54796;DHT22;40693;43.884;20.340;2023-07-31T12:57:12;820.00;1433.60
54796;DHT22;40693;43.884;20.340;2023-07-31T12:59:38;820.10;1459.20
54796;DHT22;40693;43.884;20.340;2023-07-31T13:02:03;819.80;1433.60
54796;DHT22;40693;43.884;20.340;2023-07-31T13:04:29;819.70;1510.40
54796;DHT22;40693;43.884;20.340;2023-07-31T13:06:55;819.40;1459.20
54796;DHT22;40693;43.884;20.340;2023-07-31T13:09:20;819.30;1510.40
54796;DHT22;40693;43.884;20.340;2023-07-31T13:11:46;794.50;1510.40
54796;DHT22;40693;43.884;20.340;2023-07-31T13:14:12;794.40;1536.00
54796;DHT22;40693;43.884;20.340;2023-07-31T13:16:38;794.50;1536.00
54796;DHT22;40693;43.884;20.340;2023-07-31T13:19:03;819.30;1561.60
54796;DHT22;40693;43.884;20.340;2023-07-31T13:21:29;819.40;1536.00
54796;DHT22;40693;43.884;20.340;2023-07-31T13:23:55;819.40;1561.60
54796;DHT22;40693;43.884;20.340;2023-07-31T13:26:23;819.70;1510.40
54796;DHT22;40693;43.884;20.340;2023-07-31T13:28:49;819.80;1510.40
54796;DHT22;40693;43.884;20.340;2023-07-31T13:31:14;819.60;1433.60
54796;DHT22;40693;43.884;20.340;2023-07-31T13:33:40;819.70;1459.20
54796;DHT22;40693;43.884;20.340;2023-07-31T13:36:06;819.80;1459.20
54796;DHT22;40693;43.884;20.340;2023-07-31T13:38:31;819.90;1459.20
54796;DHT22;40693;43.884;20.340;2023-07-31T13:40:57;819.80;1408.00
54796;DHT22;40693;43.884;20.340;2023-07-31T13:43:24;819.80;1433.60
54796;DHT22;40693;43.884;20.340;2023-07-31T13:45:49;819.80;1484.80
54796;DHT22;40693;43.884;20.340;2023-07-31T13:48:15;819.80;1459.20
54796;DHT22;40693;43.884;20.340;2023-07-31T13:50:41;819.80;1408.00
54796;DHT22;40693;43.884;20.340;2023-07-31T13:53:06;819.70;1382.40
54796;DHT22;40693;43.884;20.340;2023-07-31T13:55:32;819.80;1356.80
54796;DHT22;40693;43.884;20.340;2023-07-31T13:57:58;819.80;1382.40
54796;DHT22;40693;43.884;20.340;2023-07-31T14:00:23;819.60;1408.00
54796;DHT22;40693;43.884;20.340;2023-07-31T14:02:49;819.60;1356.80
54796;DHT22;40693;43.884;20.340;2023-07-31T14:05:15;819.70;1459.20
54796;DHT22;40693;43.884;20.340;2023-07-31T14:07:41;819.80;1433.60
54796;DHT22;40693;43.884;20.340;2023-07-31T14:10:06;819.80;1382.40
54796;DHT22;40693;43.884;20.340;2023-07-31T14:12:32;820.00;1408.00
54796;DHT22;40693;43.884;20.340;2023-07-31T14:14:58;820.10;1356.80
54796;DHT22;40693;43.884;20.340;2023-07-31T14:17:24;820.00;1408.00
54796;DHT22;40693;43.884;20.340;2023-07-31T14:19:50;820.10;1382.40
54796;DHT22;40693;43.884;20.340;2023-07-31T14:22:26;844.90;1382.40
54796;DHT22;40693;43.884;20.340;2023-07-31T14:24:52;844.90;1382.40
54796;DHT22;40693;43.884;20.340;2023-07-31T14:27:18;844.90;1382.40
54796;DHT22;40693;43.884;20.340;2023-07-31T14:29:43;820.00;1356.80
54796;DHT22;40693;43.884;20.340;2023-07-31T14:32:09;820.10;1331.20
54796;DHT22;40693;43.884;20.340;2023-07-31T14:34:35;820.10;1408.00
54796;DHT22;40693;43.884;20.340;2023-07-31T14:37:00;820.10;1356.80
54796;DHT22;40693;43.884;20.340;2023-07-31T14:39:26;844.90;1408.00
54796;DHT22;40693;43.884;20.340;2023-07-31T14:41:52;844.90;1331.20
54796;DHT22;40693;43.884;20.340;2023-07-31T14:44:17;820.10;1356.80
54796;DHT22;40693;43.884;20.340;2023-07-31T14:46:43;844.90;1356.80
54796;DHT22;40693;43.884;20.340;2023-07-31T14:49:09;844.90;1382.40
54796;DHT22;40693;43.884;20.340;2023-07-31T14:51:35;844.90;1356.80